Time;durP1;ratioP1;P1;durP2;ratioP2;P2;SDS_P1;SDS_P2;PMS_P1;PMS_P2;Temp;Humidity;BMP_temperature;BMP_pressure;BME280_temperature;BME280_humidity;BME280_pressure;Samples;Min_cycle;Max_cycle;Signal;HPM_P1;HPM_P2
2023/11/11 00:00:15;;;;;;;115.20;66.30;;;;;;;4.15;84.94;98960.06;130256;1256;115059;-60
2023/11/11 00:03:39;;;;;;;121.90;68.30;;;;;;;4.09;84.91;98952.91;130110;1256;114772;-60
2023/11/11 00:06:41;;;;;;;117.00;66.00;;;;;;;4.02;85.05;98959.05;130142;1256;114777;-59
2023/11/11 00:09:44;;;;;;;120.30;65.20;;;;;;;3.96;84.95;98963.72;130037;1254;114760;-60
2023/11/11 00:12:47;;;;;;;110.50;64.80;;;;;;;3.90;84.95;98965.75;130166;1252;114684;-60
2023/11/11 00:15:50;;;;;;;120.80;63.50;;;;;;;3.83;85.02;98961.45;130050;1259;114824;-60
2023/11/11 00:18:52;;;;;;;116.70;64.00;;;;;;;3.77;84.87;98961.17;130146;1275;114693;-60
2023/11/11 00:21:54;;;;;;;109.70;61.80;;;;;;;3.70;84.87;98966.40;130236;1272;115337;-60
2023/11/11 00:24:57;;;;;;;115.70;65.60;;;;;;;3.65;84.88;98965.23;130128;1257;115161;-60
2023/11/11 00:27:59;;;;;;;122.90;67.40;;;;;;;3.59;84.86;98963.54;130018;1257;116341;-60
2023/11/11 00:31:01;;;;;;;102.30;59.20;;;;;;;3.52;84.73;98962.40;129986;1254;114714;-60
2023/11/11 00:34:03;;;;;;;114.80;65.00;;;;;;;3.45;84.69;98964.27;130166;1257;115768;-60
2023/11/11 00:37:06;;;;;;;121.80;69.30;;;;;;;3.39;84.94;98965.27;129861;1275;115390;-60
2023/11/11 00:40:09;;;;;;;127.10;70.30;;;;;;;3.33;85.21;98970.27;130279;1256;114719;-60
2023/11/11 00:43:11;;;;;;;140.30;76.20;;;;;;;3.29;85.40;98976.96;130127;1257;114699;-60
2023/11/11 00:46:14;;;;;;;122.80;71.80;;;;;;;3.25;85.72;98983.83;130063;1254;115109;-60
2023/11/11 00:49:16;;;;;;;129.20;72.20;;;;;;;3.20;85.69;98983.66;130216;1256;114748;-60
2023/11/11 00:52:19;;;;;;;123.20;71.30;;;;;;;3.15;85.48;98977.86;129610;1275;128417;-59
2023/11/11 00:55:22;;;;;;;133.30;70.70;;;;;;;3.11;85.56;98973.09;130013;1254;114732;-62
2023/11/11 00:58:24;;;;;;;131.50;71.70;;;;;;;3.06;85.57;98963.40;130240;1253;114807;-62
2023/11/11 01:01:26;;;;;;;125.10;69.00;;;;;;;3.02;85.65;98954.41;130137;1256;114792;-60
2023/11/11 01:04:29;;;;;;;125.30;67.80;;;;;;;2.98;85.78;98951.01;130170;1254;114816;-60
2023/11/11 01:07:31;;;;;;;124.70;70.80;;;;;;;2.94;85.64;98951.00;129684;1261;114738;-60
2023/11/11 01:10:37;;;;;;;136.80;70.90;;;;;;;2.90;85.62;98950.10;130192;1254;114728;-60
2023/11/11 01:13:39;;;;;;;131.30;71.30;;;;;;;2.86;85.93;98952.89;130202;1275;115240;-61
2023/11/11 01:16:41;;;;;;;132.50;68.60;;;;;;;2.84;86.10;98952.48;130222;1256;115151;-60
2023/11/11 01:19:45;;;;;;;120.60;65.10;;;;;;;2.81;86.17;98955.25;130356;1257;114748;-60
2023/11/11 01:22:47;;;;;;;129.70;64.90;;;;;;;2.78;86.25;98952.55;130069;1260;114782;-61
2023/11/11 01:25:49;;;;;;;125.20;66.70;;;;;;;2.76;86.10;98955.25;130191;1256;114718;-60
2023/11/11 01:28:51;;;;;;;133.70;68.50;;;;;;;2.74;86.13;98959.04;130215;1254;114749;-61
2023/11/11 01:31:53;;;;;;;122.10;63.30;;;;;;;2.70;86.11;98955.13;130271;1256;128931;-60
2023/11/11 01:34:55;;;;;;;122.90;64.40;;;;;;;2.66;85.95;98947.71;130202;1274;114711;-62
2023/11/11 01:37:58;;;;;;;118.30;63.10;;;;;;;2.62;85.98;98944.17;130213;1274;114708;-60
2023/11/11 01:41:04;;;;;;;116.50;60.90;;;;;;;2.57;85.98;98945.23;129941;1257;114760;-60
2023/11/11 01:44:06;;;;;;;116.30;59.60;;;;;;;2.53;86.00;98945.73;129995;1256;114690;-59
2023/11/11 01:47:09;;;;;;;115.40;62.30;;;;;;;2.49;85.98;98942.73;130087;1256;114775;-59
2023/11/11 01:50:12;;;;;;;120.10;62.80;;;;;;;2.44;86.02;98939.02;130113;1254;115508;-60
2023/11/11 01:53:15;;;;;;;114.70;60.10;;;;;;;2.41;86.07;98935.45;130174;1252;115429;-60
2023/11/11 01:56:17;;;;;;;110.50;59.60;;;;;;;2.36;85.91;98931.92;129921;1257;115230;-59
2023/11/11 01:59:20;;;;;;;107.20;57.60;;;;;;;2.30;85.72;98926.52;130137;1253;114725;-60
2023/11/11 02:02:22;;;;;;;100.10;58.70;;;;;;;2.25;85.80;98923.17;130043;1257;114791;-61
2023/11/11 02:05:25;;;;;;;103.70;57.60;;;;;;;2.21;85.78;98922.64;130245;1257;114801;-63
2023/11/11 02:08:31;;;;;;;102.00;57.60;;;;;;;2.15;85.84;98923.55;129864;1262;115347;-60
2023/11/11 02:11:33;;;;;;;99.50;53.80;;;;;;;2.10;85.72;98922.88;129880;1262;127995;-64
2023/11/11 02:14:37;;;;;;;105.30;56.50;;;;;;;2.06;85.66;98924.61;130244;1256;114708;-60
2023/11/11 02:17:40;;;;;;;101.10;55.20;;;;;;;2.00;85.54;98920.41;130292;1254;114713;-61
2023/11/11 02:20:42;;;;;;;107.40;57.80;;;;;;;1.95;85.57;98911.27;130270;1256;114708;-60
2023/11/11 02:23:46;;;;;;;101.40;57.10;;;;;;;1.90;85.84;98909.52;130096;1254;115141;-61
2023/11/11 02:26:49;;;;;;;101.00;55.70;;;;;;;1.85;85.67;98905.83;130012;1255;114887;-60
2023/11/11 02:29:52;;;;;;;104.00;57.20;;;;;;;1.81;86.06;98906.67;130074;1256;115179;-62
2023/11/11 02:32:54;;;;;;;114.60;56.40;;;;;;;1.76;86.17;98910.16;129961;1254;114731;-61
2023/11/11 02:35:56;;;;;;;158.50;69.00;;;;;;;1.73;86.20;98913.47;130131;1256;114773;-61
2023/11/11 02:38:59;;;;;;;148.60;65.80;;;;;;;1.73;86.90;98917.01;130018;1275;114808;-61
2023/11/11 02:42:02;;;;;;;144.80;64.10;;;;;;;1.71;86.82;98913.53;130167;1254;115389;-60
2023/11/11 02:45:05;;;;;;;118.70;61.70;;;;;;;1.70;86.95;98914.48;130098;1256;114776;-60
2023/11/11 02:48:07;;;;;;;121.00;61.80;;;;;;;1.68;86.73;98909.61;129989;1254;114693;-60
2023/11/11 02:51:09;;;;;;;136.50;68.30;;;;;;;1.65;86.85;98908.28;130119;1254;114702;-61
2023/11/11 02:54:12;;;;;;;120.30;64.70;;;;;;;1.63;86.77;98907.13;130025;1254;114732;-62
2023/11/11 02:57:14;;;;;;;116.40;65.50;;;;;;;1.60;86.98;98900.02;130174;1256;114717;-60
2023/11/11 03:00:16;;;;;;;119.00;63.50;;;;;;;1.57;87.12;98900.30;129993;1253;114747;-61
2023/11/11 03:03:19;;;;;;;112.30;62.40;;;;;;;1.55;87.54;98903.01;129960;1254;115160;-60
2023/11/11 03:06:24;;;;;;;115.00;64.10;;;;;;;1.54;87.34;98897.42;130248;1255;114724;-60
2023/11/11 03:09:27;;;;;;;105.60;59.30;;;;;;;1.52;87.36;98890.80;130037;1256;115312;-60
2023/11/11 03:12:30;;;;;;;110.80;61.90;;;;;;;1.50;87.13;98887.52;130124;1272;115071;-60
2023/11/11 03:15:32;;;;;;;108.30;60.10;;;;;;;1.48;87.28;98889.19;130093;1253;114681;-60
2023/11/11 03:18:34;;;;;;;105.40;60.80;;;;;;;1.45;87.50;98887.36;130058;1275;114750;-61
2023/11/11 03:21:37;;;;;;;105.60;61.70;;;;;;;1.43;87.18;98885.12;130060;1256;114782;-62
2023/11/11 03:24:39;;;;;;;104.20;59.40;;;;;;;1.40;87.37;98882.08;129961;1275;128416;-60
2023/11/11 03:27:42;;;;;;;95.50;56.50;;;;;;;1.39;87.09;98886.89;129949;1275;114770;-60
2023/11/11 03:30:48;;;;;;;100.50;56.70;;;;;;;1.36;86.94;98886.80;130126;1257;114710;-62
2023/11/11 03:33:50;;;;;;;93.80;54.80;;;;;;;1.32;87.14;98881.82;130092;1275;114691;-60
2023/11/11 03:36:52;;;;;;;96.80;55.40;;;;;;;1.30;87.13;98878.55;129967;1275;114697;-62
2023/11/11 03:39:53;;;;;;;90.50;51.90;;;;;;;1.28;86.77;98879.33;130110;1254;115663;-60
2023/11/11 03:42:55;;;;;;;82.80;48.80;;;;;;;1.25;86.97;98876.98;129916;1269;128823;-60
2023/11/11 03:45:59;;;;;;;85.50;50.90;;;;;;;1.22;87.09;98879.54;130099;1269;115330;-60
2023/11/11 03:49:01;;;;;;;82.70;48.40;;;;;;;1.20;86.93;98881.89;130066;1267;114712;-61
2023/11/11 03:52:04;;;;;;;83.90;48.10;;;;;;;1.17;87.27;98882.33;130178;1256;114821;-60
2023/11/11 03:55:07;;;;;;;82.30;47.90;;;;;;;1.14;87.58;98884.36;130164;1256;114699;-61
2023/11/11 03:58:09;;;;;;;82.50;46.90;;;;;;;1.12;87.53;98880.76;130270;1254;114712;-59
2023/11/11 04:01:11;;;;;;;86.10;47.40;;;;;;;1.09;87.51;98877.15;130233;1254;114795;-60
2023/11/11 04:04:14;;;;;;;85.30;49.10;;;;;;;1.09;87.80;98883.15;127514;1256;3534202;-62
2023/11/11 04:07:16;;;;;;;91.60;51.10;;;;;;;1.08;87.85;98886.67;130020;1275;115151;-60
2023/11/11 04:10:18;;;;;;;87.30;49.60;;;;;;;1.10;87.97;98889.61;129952;1275;114775;-59
2023/11/11 04:13:20;;;;;;;92.70;51.90;;;;;;;1.12;88.32;98891.48;130054;1256;115262;-60
2023/11/11 04:16:26;;;;;;;94.40;50.90;;;;;;;1.14;88.28;98893.88;129849;1254;114708;-61
2023/11/11 04:19:28;;;;;;;100.70;51.80;;;;;;;1.17;88.41;98899.02;130004;1272;114693;-59
2023/11/11 04:22:30;;;;;;;101.40;52.80;;;;;;;1.22;88.55;98896.23;130091;1257;114751;-60
2023/11/11 04:25:32;;;;;;;97.60;52.70;;;;;;;1.27;88.93;98891.84;130290;1257;114759;-60
2023/11/11 04:28:34;;;;;;;112.50;52.20;;;;;;;1.32;88.92;98883.59;130181;1272;115268;-61
2023/11/11 04:31:37;;;;;;;95.00;51.20;;;;;;;1.37;88.73;98881.67;130402;1256;115408;-61
2023/11/11 04:34:38;;;;;;;94.20;50.50;;;;;;;1.41;88.56;98878.88;130402;1256;114814;-59
2023/11/11 04:37:40;;;;;;;90.20;48.70;;;;;;;1.43;88.62;98869.65;130147;1274;114735;-60
2023/11/11 04:40:44;;;;;;;91.10;45.90;;;;;;;1.44;88.54;98866.10;130208;1256;115756;-60
2023/11/11 04:43:46;;;;;;;76.40;43.00;;;;;;;1.44;88.80;98869.27;130266;1256;114712;-60
2023/11/11 04:46:49;;;;;;;71.60;40.60;;;;;;;1.38;88.60;98873.69;130254;1256;114902;-60
2023/11/11 04:49:51;;;;;;;70.80;40.90;;;;;;;1.32;88.31;98865.13;130246;1256;115167;-60
2023/11/11 04:52:54;;;;;;;71.10;41.40;;;;;;;1.29;88.57;98860.64;130252;1257;115372;-63
2023/11/11 04:55:56;;;;;;;61.70;37.70;;;;;;;1.27;88.49;98858.41;130241;1257;114720;-63
2023/11/11 04:58:58;;;;;;;65.20;38.50;;;;;;;1.25;88.40;98867.14;130264;1256;115042;-63
2023/11/11 05:02:01;;;;;;;56.40;35.60;;;;;;;1.22;88.50;98868.64;130241;1254;114706;-60
2023/11/11 05:05:04;;;;;;;126.30;38.00;;;;;;;1.19;88.38;98872.95;130080;1275;128774;-60
2023/11/11 05:08:06;;;;;;;104.70;42.00;;;;;;;1.16;88.38;98873.58;130114;1274;114714;-64
2023/11/11 05:11:08;;;;;;;83.10;40.20;;;;;;;1.14;88.85;98873.30;130272;1257;115080;-60
2023/11/11 05:14:17;;;;;;;91.30;40.70;;;;;;;1.14;88.80;98869.61;130271;1252;114767;-67
2023/11/11 05:17:25;;;;;;;97.70;43.40;;;;;;;1.14;89.05;98869.23;129707;1254;115442;-64
2023/11/11 05:20:28;;;;;;;85.40;41.00;;;;;;;1.16;89.15;98871.27;129822;1257;116215;-62
2023/11/11 05:23:30;;;;;;;80.80;41.20;;;;;;;1.18;89.43;98874.02;130250;1256;114718;-61
2023/11/11 05:26:32;;;;;;;116.10;44.10;;;;;;;1.21;89.18;98881.85;130043;1257;114696;-61
2023/11/11 05:29:34;;;;;;;82.60;41.40;;;;;;;1.23;89.09;98888.48;130097;1256;115214;-60
2023/11/11 05:32:37;;;;;;;96.70;41.50;;;;;;;1.23;89.16;98882.14;129916;1257;114836;-61
2023/11/11 05:35:40;;;;;;;86.00;40.40;;;;;;;1.20;88.91;98884.51;130181;1253;114721;-60
2023/11/11 05:38:43;;;;;;;92.10;39.90;;;;;;;1.18;88.92;98883.35;130078;1257;115173;-61
2023/11/11 05:41:45;;;;;;;90.40;40.20;;;;;;;1.17;89.19;98887.95;130282;1256;115775;-60
2023/11/11 05:44:47;;;;;;;93.80;38.60;;;;;;;1.16;89.36;98892.92;129884;1271;128924;-61
2023/11/11 05:47:49;;;;;;;69.20;38.60;;;;;;;1.15;88.90;98895.59;130101;1256;115118;-61
2023/11/11 05:50:51;;;;;;;83.20;41.20;;;;;;;1.16;89.42;98895.23;130069;1271;114683;-60
2023/11/11 05:53:57;;;;;;;73.10;38.40;;;;;;;1.16;88.92;98899.58;130165;1257;115159;-60
2023/11/11 05:56:59;;;;;;;62.70;36.00;;;;;;;1.16;89.31;98905.39;129939;1254;114801;-60
2023/11/11 06:00:03;;;;;;;65.50;37.70;;;;;;;1.18;89.46;98904.46;129969;1271;114777;-60
2023/11/11 06:03:06;;;;;;;64.90;37.90;;;;;;;1.20;89.35;98907.03;130049;1256;129039;-59
2023/11/11 06:06:08;;;;;;;75.30;38.70;;;;;;;1.22;89.33;98912.41;130114;1256;115150;-60
2023/11/11 06:09:14;;;;;;;70.80;38.60;;;;;;;1.26;89.54;98914.23;130085;1254;114748;-60
2023/11/11 06:12:16;;;;;;;75.80;40.60;;;;;;;1.29;89.50;98913.41;130184;1254;114695;-60
2023/11/11 06:15:18;;;;;;;73.00;38.70;;;;;;;1.33;89.43;98913.11;129942;1257;114767;-61
2023/11/11 06:18:20;;;;;;;61.70;36.70;;;;;;;1.36;89.31;98909.83;130163;1261;115586;-60
2023/11/11 06:21:23;;;;;;;66.70;37.10;;;;;;;1.43;89.73;98911.70;129700;1274;128472;-60
2023/11/11 06:24:25;;;;;;;99.30;54.10;;;;;;;1.47;89.61;98916.13;130149;1275;114709;-61
2023/11/11 06:27:27;;;;;;;125.10;37.90;;;;;;;1.52;90.21;98919.30;130124;1272;114749;-60
2023/11/11 06:30:29;;;;;;;63.90;35.90;;;;;;;1.58;90.12;98916.98;129903;1258;114888;-60
2023/11/11 06:33:31;;;;;;;67.90;35.80;;;;;;;1.65;90.23;98922.02;130139;1254;115358;-63
2023/11/11 06:36:33;;;;;;;75.60;33.10;;;;;;;1.72;90.07;98931.63;130187;1256;115246;-60
2023/11/11 06:39:37;;;;;;;69.10;36.10;;;;;;;1.78;90.26;98931.08;130010;1262;114881;-62
2023/11/11 06:42:39;;;;;;;71.60;37.50;;;;;;;1.86;90.02;98931.31;130168;1254;115181;-59
2023/11/11 06:45:41;;;;;;;64.50;34.90;;;;;;;1.94;89.89;98929.44;130106;1259;115303;-61
2023/11/11 06:48:44;;;;;;;83.40;42.30;;;;;;;1.99;90.05;98926.08;130165;1266;115208;-60
2023/11/11 06:51:46;;;;;;;70.60;40.20;;;;;;;2.05;90.01;98923.08;130092;1261;114721;-60
2023/11/11 06:54:48;;;;;;;76.80;42.00;;;;;;;2.11;90.08;98929.34;130107;1272;114791;-61
2023/11/11 06:57:51;;;;;;;69.30;39.20;;;;;;;2.19;90.10;98929.42;129992;1260;114776;-59
2023/11/11 07:00:53;;;;;;;71.30;34.70;;;;;;;2.27;90.27;98925.91;130154;1267;114779;-61
2023/11/11 07:03:56;;;;;;;84.00;39.60;;;;;;;2.35;90.13;98931.61;130225;1257;115153;-62
2023/11/11 07:06:58;;;;;;;99.80;39.60;;;;;;;2.42;90.30;98932.40;130306;1265;115154;-60
2023/11/11 07:10:01;;;;;;;89.80;38.80;;;;;;;2.51;90.38;98929.41;130199;1251;114782;-60
2023/11/11 07:13:04;;;;;;;74.70;35.70;;;;;;;2.60;90.36;98926.07;130235;1275;114708;-60
2023/11/11 07:16:06;;;;;;;67.00;37.80;;;;;;;2.68;90.40;98922.23;130269;1256;114779;-60
2023/11/11 07:19:09;;;;;;;73.10;38.10;;;;;;;2.77;90.40;98925.95;130134;1257;115544;-60
2023/11/11 07:22:14;;;;;;;78.40;41.80;;;;;;;2.81;90.32;98925.61;130211;1257;114686;-61
2023/11/11 07:25:16;;;;;;;;;;;;;;;2.87;90.28;98926.09;129872;1260;114779;-60
2023/11/11 07:28:18;;;;;;;72.70;40.60;;;;;;;2.92;90.31;98927.84;130182;1264;115217;-61
2023/11/11 07:31:23;;;;;;;67.90;39.70;;;;;;;2.95;89.98;98927.36;130220;1265;114762;-60
2023/11/11 07:34:25;;;;;;;66.20;36.50;;;;;;;2.98;90.06;98928.82;129890;1255;114885;-61
2023/11/11 07:37:27;;;;;;;65.30;39.20;;;;;;;3.01;89.97;98923.58;130152;1256;114715;-61
2023/11/11 07:40:29;;;;;;;57.00;31.50;;;;;;;3.06;89.97;98918.24;130183;1256;115397;-62
2023/11/11 07:43:32;;;;;;;53.20;32.40;;;;;;;3.14;90.19;98921.63;130184;1257;128991;-61
2023/11/11 07:46:35;;;;;;;50.30;31.10;;;;;;;3.24;90.25;98924.39;130259;1256;114721;-61
2023/11/11 07:49:38;;;;;;;56.00;32.90;;;;;;;3.36;90.47;98929.56;130252;1257;114764;-63
2023/11/11 07:52:40;;;;;;;69.80;41.30;;;;;;;3.48;90.53;98929.55;130234;1255;114791;-60
2023/11/11 07:55:42;;;;;;;59.60;36.30;;;;;;;3.60;90.21;98933.67;130162;1265;114718;-60
2023/11/11 07:58:47;;;;;;;60.50;35.90;;;;;;;3.71;90.08;98931.59;130184;1275;114788;-60
2023/11/11 08:01:49;;;;;;;57.40;34.80;;;;;;;3.84;90.18;98925.58;130120;1275;129485;-60
2023/11/11 08:04:51;;;;;;;60.10;33.70;;;;;;;3.95;90.18;98915.54;130161;1256;115285;-61
2023/11/11 08:07:57;;;;;;;57.60;34.50;;;;;;;4.05;90.07;98913.48;130344;1256;114721;-60
2023/11/11 08:11:00;;;;;;;54.60;31.90;;;;;;;4.15;90.03;98911.45;130358;1256;114807;-61
2023/11/11 08:14:04;;;;;;;53.90;35.70;;;;;;;4.24;90.16;98913.89;130303;1257;114759;-60
2023/11/11 08:17:06;;;;;;;56.20;34.50;;;;;;;4.34;89.93;98921.55;130146;1253;127897;-61
2023/11/11 08:20:11;;;;;;;58.60;35.10;;;;;;;4.44;90.01;98925.52;130279;1275;114750;-60
2023/11/11 08:23:13;;;;;;;51.40;33.10;;;;;;;4.55;89.82;98917.59;130351;1257;114727;-60
2023/11/11 08:26:15;;;;;;;58.10;34.20;;;;;;;4.65;89.65;98907.55;130126;1275;114698;-60
2023/11/11 08:29:18;;;;;;;56.60;33.20;;;;;;;4.71;89.57;98906.36;130378;1275;114690;-60
2023/11/11 08:32:20;;;;;;;52.70;33.90;;;;;;;4.79;89.80;98906.52;130262;1275;114805;-61
2023/11/11 08:35:22;;;;;;;53.70;33.80;;;;;;;4.90;89.69;98901.04;130108;1257;114790;-60
2023/11/11 08:38:25;;;;;;;50.20;32.20;;;;;;;5.02;90.06;98906.79;130083;1257;114686;-60
2023/11/11 08:41:27;;;;;;;43.70;29.00;;;;;;;5.14;90.01;98901.10;129913;1257;115253;-61
2023/11/11 08:44:31;;;;;;;49.90;32.00;;;;;;;5.28;89.98;98894.40;130159;1256;114695;-63
2023/11/11 08:47:33;;;;;;;45.10;28.50;;;;;;;5.43;89.89;98894.73;130061;1257;114699;-60
2023/11/11 08:50:35;;;;;;;46.80;28.70;;;;;;;5.56;89.91;98893.50;130289;1257;115353;-61
2023/11/11 08:53:37;;;;;;;46.10;29.70;;;;;;;5.70;89.64;98889.95;130189;1256;114742;-61
2023/11/11 08:56:39;;;;;;;45.30;29.20;;;;;;;5.83;89.80;98884.86;130134;1257;114692;-60
2023/11/11 08:59:41;;;;;;;47.40;28.30;;;;;;;5.96;89.70;98888.05;130275;1261;114778;-60
2023/11/11 09:02:44;;;;;;;47.10;27.80;;;;;;;6.12;89.62;98889.75;129967;1261;115239;-60
2023/11/11 09:05:46;;;;;;;38.90;26.80;;;;;;;6.20;89.25;98891.04;130159;1256;115388;-60
2023/11/11 09:08:48;;;;;;;101.70;53.20;;;;;;;6.31;89.31;98891.86;130322;1257;115364;-61
2023/11/11 09:11:50;;;;;;;64.20;37.20;;;;;;;6.42;89.10;98894.30;130226;1256;114723;-62
2023/11/11 09:14:53;;;;;;;48.90;30.50;;;;;;;6.53;88.99;98891.55;130135;1265;114818;-62
2023/11/11 09:17:55;;;;;;;43.50;26.70;;;;;;;6.67;89.26;98890.95;130141;1267;114746;-60
2023/11/11 09:20:59;;;;;;;37.90;25.60;;;;;;;6.84;89.35;98888.27;130256;1275;114645;-60
2023/11/11 09:24:02;;;;;;;41.40;25.30;;;;;;;6.99;89.00;98887.77;130128;1275;114750;-61
2023/11/11 09:27:04;;;;;;;37.70;24.60;;;;;;;7.13;88.92;98889.29;130211;1261;115147;-64
2023/11/11 09:30:08;;;;;;;38.90;25.70;;;;;;;7.24;88.70;98886.45;130128;1267;114706;-60
2023/11/11 09:33:11;;;;;;;40.00;26.00;;;;;;;7.37;88.80;98886.27;130328;1264;114709;-60
2023/11/11 09:36:13;;;;;;;39.60;25.90;;;;;;;7.50;88.50;98885.67;130264;1256;115011;-64
2023/11/11 09:39:15;;;;;;;42.40;28.30;;;;;;;7.63;88.75;98884.36;130317;1257;114777;-60
2023/11/11 09:42:17;;;;;;;45.90;28.30;;;;;;;7.76;88.28;98874.36;130189;1267;115147;-60
2023/11/11 09:45:21;;;;;;;42.50;28.40;;;;;;;7.87;88.22;98873.34;130148;1265;114802;-60
2023/11/11 09:48:24;;;;;;;44.30;30.50;;;;;;;7.98;87.88;98877.83;130111;1258;114715;-60
2023/11/11 09:51:27;;;;;;;48.30;34.00;;;;;;;8.08;88.19;98876.79;129964;1267;114792;-61
2023/11/11 09:54:30;;;;;;;52.60;36.00;;;;;;;8.17;87.89;98877.35;130168;1260;114765;-61
2023/11/11 09:57:33;;;;;;;50.80;31.90;;;;;;;8.24;87.77;98875.84;130226;1259;115477;-62
2023/11/11 10:00:36;;;;;;;45.10;31.30;;;;;;;8.32;87.46;98868.77;130152;1258;116415;-60
2023/11/11 10:03:38;;;;;;;50.50;32.70;;;;;;;8.42;87.35;98864.01;130213;1257;115217;-61
2023/11/11 10:06:40;;;;;;;46.40;31.70;;;;;;;8.54;86.99;98861.52;129621;1257;114900;-61
2023/11/11 10:09:42;;;;;;;45.50;30.90;;;;;;;8.68;87.19;98860.83;130211;1254;115591;-61
2023/11/11 10:12:44;;;;;;;47.70;31.30;;;;;;;8.81;86.96;98857.65;130283;1257;115339;-61
2023/11/11 10:15:47;;;;;;;51.00;35.00;;;;;;;8.91;86.56;98853.23;129873;1262;128347;-59
2023/11/11 10:18:49;;;;;;;51.60;35.40;;;;;;;9.00;86.27;98847.15;130283;1265;114826;-61
2023/11/11 10:21:58;;;;;;;58.00;40.80;;;;;;;9.05;85.96;98841.98;129945;1260;114821;-61
2023/11/11 10:25:01;;;;;;;53.70;35.70;;;;;;;9.11;85.76;98841.43;130238;1264;115132;-61
2023/11/11 10:28:04;;;;;;;46.70;32.90;;;;;;;9.14;85.51;98837.47;130088;1256;114779;-60
2023/11/11 10:31:10;;;;;;;42.70;30.10;;;;;;;9.17;85.30;98836.55;130010;1264;114785;-60
2023/11/11 10:34:12;;;;;;;41.70;28.90;;;;;;;9.20;85.24;98833.00;130118;1275;115217;-61
2023/11/11 10:37:14;;;;;;;52.50;37.00;;;;;;;9.21;85.11;98830.44;130094;1257;116338;-60
2023/11/11 10:40:18;;;;;;;55.40;39.40;;;;;;;9.25;84.96;98829.80;130174;1257;114686;-60
2023/11/11 10:43:20;;;;;;;48.80;31.60;;;;;;;9.30;84.58;98823.79;130195;1264;114698;-60
2023/11/11 10:46:22;;;;;;;47.30;30.70;;;;;;;9.34;84.57;98821.77;130048;1275;114651;-60
2023/11/11 10:49:27;;;;;;;37.30;24.00;;;;;;;9.37;84.85;98820.13;130461;1273;114690;-60
2023/11/11 10:52:31;;;;;;;59.80;42.40;;;;;;;9.40;84.55;98826.29;130051;1268;128902;-64
2023/11/11 10:55:33;;;;;;;51.30;31.70;;;;;;;9.45;84.54;98826.14;130077;1257;115233;-62
2023/11/11 10:58:38;;;;;;;40.00;26.80;;;;;;;9.48;84.29;98822.36;130127;1256;115312;-60
2023/11/11 11:01:41;;;;;;;66.00;38.40;;;;;;;9.50;84.26;98817.02;130138;1268;114818;-60
2023/11/11 11:04:46;;;;;;;46.50;31.30;;;;;;;9.55;84.26;98817.80;129834;1259;114947;-61
2023/11/11 11:07:59;;;;;;;43.50;29.40;;;;;;;9.59;84.32;98818.77;130119;1260;128634;-61
2023/11/11 11:11:40;;;;;;;35.30;24.60;;;;;;;9.65;84.42;98813.55;129714;1260;114816;-59
2023/11/11 11:14:42;;;;;;;38.10;23.30;;;;;;;9.74;84.06;98814.19;129286;1264;114922;-59
2023/11/11 11:17:45;;;;;;;40.40;24.80;;;;;;;9.82;84.09;98817.55;129566;1270;114798;-60
2023/11/11 11:20:48;;;;;;;38.00;23.70;;;;;;;9.89;83.69;98822.73;129513;1273;114982;-62
2023/11/11 11:23:50;;;;;;;36.80;24.30;;;;;;;9.95;83.91;98817.50;129667;1267;114780;-62
2023/11/11 11:26:57;;;;;;;39.30;25.20;;;;;;;10.05;83.47;98813.61;129550;1264;127868;-60
2023/11/11 11:30:26;;;;;;;46.40;31.60;;;;;;;10.11;83.36;98809.05;129447;1271;115381;-61
2023/11/11 11:33:31;;;;;;;37.00;24.80;;;;;;;10.16;82.95;98810.84;129675;1263;114920;-61
2023/11/11 11:36:51;;;;;;;42.60;26.90;;;;;;;10.19;82.55;98810.45;129882;1258;114892;-62
2023/11/11 11:40:08;;;;;;;33.30;24.50;;;;;;;10.23;82.62;98812.36;129957;1275;114901;-63
2023/11/11 11:43:10;;;;;;;32.40;23.10;;;;;;;10.29;82.50;98814.73;130216;1254;128893;-61
2023/11/11 11:46:13;;;;;;;41.90;27.10;;;;;;;10.30;81.94;98812.83;130209;1257;114728;-60
2023/11/11 11:49:17;;;;;;;41.70;25.80;;;;;;;10.35;82.27;98813.57;130135;1275;114692;-62
2023/11/11 11:52:20;;;;;;;42.50;27.60;;;;;;;10.36;82.06;98813.34;130225;1261;114770;-61
2023/11/11 11:55:22;;;;;;;36.60;24.60;;;;;;;10.37;81.69;98817.73;130124;1257;114794;-62
2023/11/11 11:58:25;;;;;;;39.20;27.00;;;;;;;10.37;81.58;98821.27;130253;1258;114702;-60
2023/11/11 12:01:34;;;;;;;38.60;25.60;;;;;;;10.41;81.76;98819.42;129701;1265;128322;-60
2023/11/11 12:04:36;;;;;;;38.10;26.60;;;;;;;10.46;81.48;98821.20;130058;1267;114760;-63
2023/11/11 12:07:39;;;;;;;39.20;25.00;;;;;;;10.49;81.58;98820.81;130147;1257;114664;-60
2023/11/11 12:10:45;;;;;;;35.60;22.80;;;;;;;10.53;81.82;98819.77;130185;1265;114795;-62
2023/11/11 12:13:47;;;;;;;36.10;23.90;;;;;;;10.57;81.49;98816.85;130008;1260;114808;-68
2023/11/11 12:16:52;;;;;;;43.60;25.70;;;;;;;10.61;81.22;98819.56;130599;1252;114794;-67
2023/11/11 12:19:55;;;;;;;;;;;;;;;10.62;81.09;98819.69;130610;1257;114777;-67
2023/11/11 12:22:58;;;;;;;31.80;20.60;;;;;;;10.59;80.53;98817.79;130628;1257;114693;-67
2023/11/11 12:26:01;;;;;;;30.20;21.10;;;;;;;10.50;80.03;98811.47;130642;1254;114779;-71
2023/11/11 12:29:04;;;;;;;33.40;22.90;;;;;;;10.44;79.98;98807.59;130393;1257;115001;-70
2023/11/11 12:32:11;;;;;;;33.10;21.20;;;;;;;10.45;80.18;98810.41;130582;1256;114851;-69
2023/11/11 12:35:13;;;;;;;31.10;20.70;;;;;;;10.45;80.04;98807.38;130432;1267;115214;-70
2023/11/11 12:38:27;;;;;;;32.70;20.70;;;;;;;10.41;80.08;98813.54;130042;1275;114968;-70
2023/11/11 12:41:30;;;;;;;37.40;21.00;;;;;;;10.36;79.67;98813.36;130442;1254;114777;-69
2023/11/11 12:44:37;;;;;;;32.40;20.80;;;;;;;10.30;79.77;98814.10;130302;1254;115660;-69
2023/11/11 12:47:39;;;;;;;33.00;20.40;;;;;;;10.28;79.86;98815.66;130446;1257;129944;-69
2023/11/11 12:50:42;;;;;;;32.70;21.00;;;;;;;10.24;79.61;98817.63;130491;1258;114740;-68
2023/11/11 12:53:44;;;;;;;32.20;20.90;;;;;;;10.18;79.59;98817.14;130689;1256;114737;-70
2023/11/11 12:56:50;;;;;;;33.50;20.70;;;;;;;10.11;79.32;98816.05;130545;1255;114644;-70
2023/11/11 12:59:57;;;;;;;29.00;18.80;;;;;;;10.02;79.62;98813.05;130267;1254;114823;-71
2023/11/11 13:03:00;;;;;;;29.60;18.10;;;;;;;9.96;79.75;98817.60;130201;1260;116379;-68
2023/11/11 13:06:06;;;;;;;35.40;21.40;;;;;;;9.91;79.73;98821.02;130516;1251;129018;-68
2023/11/11 13:09:13;;;;;;;30.50;20.70;;;;;;;9.86;80.02;98822.94;130580;1264;115132;-68
2023/11/11 13:12:17;;;;;;;29.60;19.40;;;;;;;9.80;79.75;98824.48;130091;1262;114827;-69
2023/11/11 13:15:19;;;;;;;34.70;22.00;;;;;;;9.73;79.70;98827.98;130518;1258;114766;-67
2023/11/11 13:18:22;;;;;;;40.40;24.50;;;;;;;9.67;79.74;98823.21;130540;1258;114705;-71
2023/11/11 13:21:26;;;;;;;40.60;25.50;;;;;;;9.60;79.73;98820.63;130713;1251;114779;-68
2023/11/11 13:24:29;;;;;;;33.80;20.30;;;;;;;9.54;79.99;98823.19;130634;1256;114717;-68
2023/11/11 13:27:32;;;;;;;32.30;20.40;;;;;;;9.48;79.75;98819.51;130545;1257;114677;-69
2023/11/11 13:30:34;;;;;;;32.00;19.10;;;;;;;9.42;79.68;98821.73;130574;1255;114677;-69
2023/11/11 13:33:36;;;;;;;33.50;20.50;;;;;;;9.34;79.51;98821.33;130759;1257;114752;-69
2023/11/11 13:36:43;;;;;;;35.20;21.80;;;;;;;9.26;79.51;98822.42;130489;1257;114744;-67
2023/11/11 13:39:51;;;;;;;43.70;24.20;;;;;;;9.18;79.70;98823.66;130618;1253;129464;-70
2023/11/11 13:42:53;;;;;;;30.10;18.50;;;;;;;9.15;79.82;98823.74;130149;1254;116315;-67
2023/11/11 13:45:55;;;;;;;31.30;20.10;;;;;;;9.09;79.66;98821.98;130579;1251;115298;-67
2023/11/11 13:48:59;;;;;;;41.40;26.40;;;;;;;9.04;79.64;98826.92;130538;1257;114843;-67